Time;durP1;ratioP1;P1;durP2;ratioP2;P2;SDS_P1;SDS_P2;PMS_P1;PMS_P2;Temp;Humidity;BMP_temperature;BMP_pressure;BME280_temperature;BME280_humidity;BME280_pressure;Samples;Min_cycle;Max_cycle;Signal;HPM_P1;HPM_P2
2021/09/01 00:02:15;;;;;;;25.50;13.23;;;13.80;99.90;;;;;;5034037;28;20034;-69
2021/09/01 00:04:41;;;;;;;24.10;12.88;;;13.70;99.90;;;;;;5032612;28;20041;-69
2021/09/01 00:07:07;;;;;;;29.63;14.52;;;13.50;99.90;;;;;;5016084;28;20072;-68
2021/09/01 00:09:33;;;;;;;33.38;15.18;;;13.50;99.90;;;;;;5032653;28;20046;-68
2021/09/01 00:11:59;;;;;;;32.15;15.40;;;13.50;99.90;;;;;;5033522;28;20025;-69
2021/09/01 00:14:25;;;;;;;33.83;17.00;;;13.60;99.90;;;;;;5032334;28;20112;-69
2021/09/01 00:16:51;;;;;;;32.30;16.15;;;13.80;99.90;;;;;;5016041;28;20034;-69
2021/09/01 00:19:17;;;;;;;31.45;15.68;;;13.80;99.90;;;;;;5033198;28;20057;-68
2021/09/01 00:21:42;;;;;;;32.13;15.82;;;13.90;99.90;;;;;;5032277;28;20037;-69
2021/09/01 00:24:09;;;;;;;33.80;16.17;;;13.90;99.90;;;;;;5033407;28;20030;-69
2021/09/01 00:26:35;;;;;;;32.30;16.33;;;14.00;99.90;;;;;;5038727;28;20112;-68
2021/09/01 00:29:01;;;;;;;33.53;17.40;;;14.00;99.90;;;;;;5053598;28;20039;-69
2021/09/01 00:31:27;;;;;;;30.30;14.95;;;14.10;99.90;;;;;;5052975;28;20065;-68
2021/09/01 00:33:53;;;;;;;28.52;15.38;;;14.10;99.90;;;;;;5051794;28;20040;-69
2021/09/01 00:36:20;;;;;;;28.38;15.35;;;14.10;99.90;;;;;;5053350;28;20074;-69
2021/09/01 00:38:47;;;;;;;35.85;16.13;;;14.10;99.90;;;;;;5051714;28;20037;-69
2021/09/01 00:41:24;;;;;;;27.42;14.50;;;14.00;99.90;;;;;;5051850;28;20033;-68
2021/09/01 00:43:53;;;;;;;32.20;15.88;;;13.70;99.90;;;;;;5051788;28;20136;-69
2021/09/01 00:46:19;;;;;;;32.58;16.10;;;13.50;99.90;;;;;;5052020;28;20021;-69
2021/09/01 00:48:46;;;;;;;31.95;16.50;;;13.50;99.90;;;;;;5051694;28;20047;-69
2021/09/01 00:51:12;;;;;;;33.75;16.27;;;13.40;99.90;;;;;;5051991;28;20032;-69
2021/09/01 00:53:45;;;;;;;32.30;15.98;;;13.60;99.90;;;;;;5053314;28;20033;-69
2021/09/01 00:56:21;;;;;;;34.78;16.60;;;13.60;99.90;;;;;;5048634;28;20556;-69
2021/09/01 00:58:47;;;;;;;34.67;16.52;;;13.60;99.90;;;;;;5032795;28;20041;-69
2021/09/01 01:01:15;;;;;;;32.88;15.73;;;13.70;99.90;;;;;;5031685;28;20033;-68
2021/09/01 01:03:53;;;;;;;32.83;15.32;;;13.70;99.90;;;;;;5032963;28;20034;-68
2021/09/01 01:06:29;;;;;;;32.53;17.45;;;13.90;99.90;;;;;;5031867;28;20029;-68
2021/09/01 01:08:55;;;;;;;31.70;16.75;;;13.90;99.90;;;;;;5031915;28;20047;-69
2021/09/01 01:11:23;;;;;;;28.27;15.07;;;13.90;99.90;;;;;;5032545;28;20459;-69
2021/09/01 01:13:50;;;;;;;32.47;16.38;;;13.90;99.90;;;;;;5032650;28;20124;-68
2021/09/01 01:16:24;;;;;;;33.17;15.63;;;13.90;99.90;;;;;;5031493;28;20033;-68
2021/09/01 01:18:52;;;;;;;30.00;14.73;;;13.90;99.90;;;;;;5031296;28;20049;-69
2021/09/01 01:21:23;;;;;;;29.63;15.27;;;14.00;99.90;;;;;;5032390;28;20079;-69
2021/09/01 01:23:58;;;;;;;28.70;13.63;;;13.90;99.90;;;;;;5032756;28;20068;-69
2021/09/01 01:26:30;;;;;;;31.25;14.75;;;13.70;99.90;;;;;;5036759;28;20381;-69
2021/09/01 01:29:01;;;;;;;27.50;14.45;;;13.70;99.90;;;;;;5050828;28;20086;-69
2021/09/01 01:31:27;;;;;;;;;;;13.70;99.90;;;;;;5051734;28;20043;-69
2021/09/01 01:33:53;;;;;;;33.55;13.10;;;13.70;99.90;;;;;;5052395;28;20546;-69
2021/09/01 01:36:19;;;;;;;28.30;13.35;;;13.80;99.90;;;;;;5050947;28;20033;-69
2021/09/01 01:38:46;;;;;;;28.55;14.45;;;13.80;99.90;;;;;;5052381;28;20504;-69
2021/09/01 01:41:12;;;;;;;27.17;13.02;;;13.80;99.90;;;;;;5036361;28;20033;-69
2021/09/01 01:43:38;;;;;;;27.42;14.27;;;13.80;99.90;;;;;;5032178;28;20382;-69
2021/09/01 01:46:06;;;;;;;28.63;13.98;;;13.70;99.90;;;;;;5032491;28;20032;-70
2021/09/01 01:48:34;;;;;;;24.50;13.45;;;13.60;99.90;;;;;;5030775;28;20029;-70
2021/09/01 01:51:03;;;;;;;29.67;14.80;;;13.60;99.90;;;;;;5032420;28;20116;-69
2021/09/01 01:53:29;;;;;;;28.17;14.45;;;13.60;99.90;;;;;;5030732;28;20389;-69
2021/09/01 01:55:55;;;;;;;25.17;12.88;;;13.60;99.90;;;;;;5031971;28;20025;-69
2021/09/01 01:58:21;;;;;;;27.52;14.40;;;13.50;99.90;;;;;;5014300;28;20497;-69
2021/09/01 02:00:47;;;;;;;25.50;13.80;;;13.40;99.90;;;;;;5032452;28;20398;-69
2021/09/01 02:03:13;;;;;;;29.60;14.02;;;13.30;99.90;;;;;;5032317;28;20083;-69
2021/09/01 02:05:39;;;;;;;28.33;14.23;;;13.20;99.90;;;;;;5014804;28;20025;-69
2021/09/01 02:08:05;;;;;;;29.23;13.98;;;13.10;99.90;;;;;;5032326;28;20053;-69
2021/09/01 02:10:31;;;;;;;26.67;14.70;;;12.90;99.90;;;;;;5039283;28;20071;-70
2021/09/01 02:12:57;;;;;;;30.55;14.77;;;12.80;99.90;;;;;;5050603;28;20056;-70
2021/09/01 02:15:22;;;;;;;28.75;15.27;;;12.80;99.90;;;;;;5051730;28;20441;-70
2021/09/01 02:17:48;;;;;;;30.45;14.90;;;12.80;99.90;;;;;;5051780;28;20070;-70
2021/09/01 02:20:15;;;;;;;24.15;13.57;;;12.90;99.90;;;;;;5051847;28;20488;-69
2021/09/01 02:22:42;;;;;;;25.98;13.93;;;13.00;99.90;;;;;;5052064;28;20021;-70
2021/09/01 02:25:10;;;;;;;28.33;13.82;;;13.10;99.90;;;;;;5033375;28;20113;-69
2021/09/01 02:27:37;;;;;;;23.25;12.38;;;13.20;99.90;;;;;;5031982;28;20029;-69
2021/09/01 02:30:05;;;;;;;27.83;13.88;;;13.30;99.90;;;;;;5032015;28;20116;-69
2021/09/01 02:32:31;;;;;;;28.40;13.98;;;13.20;99.90;;;;;;5035761;28;20037;-69
2021/09/01 02:34:57;;;;;;;26.45;14.57;;;13.20;99.90;;;;;;5051587;28;20559;-69
2021/09/01 02:37:23;;;;;;;28.95;14.35;;;13.10;99.90;;;;;;5051431;28;20039;-69
2021/09/01 02:39:49;;;;;;;24.88;12.45;;;13.20;99.90;;;;;;5051589;28;20040;-69
2021/09/01 02:42:15;;;;;;;26.60;13.05;;;13.10;99.90;;;;;;5051697;28;20058;-69
2021/09/01 02:44:41;;;;;;;29.33;13.85;;;13.10;99.90;;;;;;5051388;28;20058;-69
2021/09/01 02:47:07;;;;;;;25.75;13.88;;;13.10;99.90;;;;;;5050519;28;20126;-68
2021/09/01 02:49:33;;;;;;;25.25;13.18;;;13.10;99.90;;;;;;5051451;28;20176;-68
2021/09/01 02:51:59;;;;;;;27.60;13.27;;;13.10;99.90;;;;;;5051577;28;20025;-69
2021/09/01 02:54:25;;;;;;;27.88;13.20;;;13.00;99.90;;;;;;5051866;28;20033;-68
2021/09/01 02:56:51;;;;;;;25.65;12.82;;;13.00;99.90;;;;;;5055159;28;20033;-68
2021/09/01 02:59:17;;;;;;;26.88;14.30;;;13.00;99.90;;;;;;5055308;28;20048;-68
2021/09/01 03:01:42;;;;;;;27.08;13.27;;;12.90;99.90;;;;;;5055411;28;20021;-69
2021/09/01 03:04:11;;;;;;;25.45;12.75;;;12.90;99.90;;;;;;5054980;28;20108;-68
2021/09/01 03:06:37;;;;;;;23.20;12.88;;;12.80;99.90;;;;;;5054863;28;20424;-68
2021/09/01 03:09:03;;;;;;;22.27;12.20;;;12.80;99.90;;;;;;5053542;28;20036;-69
2021/09/01 03:11:29;;;;;;;23.50;13.10;;;12.80;99.90;;;;;;5055067;28;20033;-70
2021/09/01 03:13:55;;;;;;;28.13;13.52;;;12.80;99.90;;;;;;5053785;28;20171;-69
2021/09/01 03:16:20;;;;;;;21.92;12.80;;;12.80;99.90;;;;;;5054807;28;20033;-69
2021/09/01 03:18:46;;;;;;;24.17;12.80;;;12.80;99.90;;;;;;5054281;28;20485;-69
2021/09/01 03:21:12;;;;;;;23.45;11.98;;;12.80;99.90;;;;;;5054667;28;20381;-70
2021/09/01 03:23:37;;;;;;;28.65;13.70;;;12.80;99.90;;;;;;5049198;28;20498;-69
2021/09/01 03:26:04;;;;;;;22.98;12.32;;;12.60;99.90;;;;;;5034469;28;20057;-69
2021/09/01 03:28:30;;;;;;;28.75;14.45;;;12.40;99.90;;;;;;5034681;28;20104;-70
2021/09/01 03:30:56;;;;;;;25.25;13.43;;;12.40;99.90;;;;;;5033305;28;20105;-70
2021/09/01 03:33:21;;;;;;;24.00;12.90;;;12.30;99.90;;;;;;5032937;28;20034;-69
2021/09/01 03:35:47;;;;;;;24.70;12.52;;;12.30;99.90;;;;;;5034499;28;20076;-69
2021/09/01 03:38:15;;;;;;;24.30;12.30;;;12.40;99.90;;;;;;5033366;28;20044;-69
2021/09/01 03:40:41;;;;;;;23.08;12.20;;;12.50;99.90;;;;;;5034555;28;20355;-69
2021/09/01 03:43:07;;;;;;;22.63;12.02;;;12.50;99.90;;;;;;5034257;28;20037;-69
2021/09/01 03:45:32;;;;;;;31.17;12.93;;;12.70;99.90;;;;;;5034418;28;20037;-69
2021/09/01 03:47:58;;;;;;;24.27;12.68;;;12.60;99.90;;;;;;5034571;28;20042;-70
2021/09/01 03:50:24;;;;;;;23.50;12.65;;;12.70;99.90;;;;;;5034159;28;20033;-69
2021/09/01 03:52:49;;;;;;;26.50;13.30;;;12.80;99.90;;;;;;5032882;28;20042;-69
2021/09/01 03:55:16;;;;;;;22.13;12.07;;;12.80;99.90;;;;;;5034065;28;20104;-69
2021/09/01 03:57:41;;;;;;;21.25;12.55;;;12.80;99.90;;;;;;5034059;28;20502;-69
2021/09/01 04:00:09;;;;;;;26.08;13.63;;;12.50;99.90;;;;;;5034269;28;20037;-69
2021/09/01 04:02:35;;;;;;;24.73;13.57;;;12.50;99.90;;;;;;5033747;28;20469;-69
2021/09/01 04:05:00;;;;;;;24.83;12.57;;;12.30;99.90;;;;;;5033224;28;20095;-69
2021/09/01 04:07:26;;;;;;;24.90;13.27;;;12.40;99.90;;;;;;5049515;28;20040;-69
2021/09/01 04:09:52;;;;;;;28.20;13.57;;;12.50;99.90;;;;;;5050279;28;20062;-69
2021/09/01 04:12:18;;;;;;;30.40;14.07;;;12.40;99.90;;;;;;5053598;28;20095;-69
2021/09/01 04:14:44;;;;;;;26.85;14.18;;;12.50;99.90;;;;;;5053518;28;20031;-69
2021/09/01 04:17:10;;;;;;;22.52;12.73;;;12.40;99.90;;;;;;5052319;28;20482;-71
2021/09/01 04:19:36;;;;;;;23.33;13.18;;;12.50;99.90;;;;;;5052509;28;20033;-69
2021/09/01 04:22:04;;;;;;;26.15;12.93;;;12.50;99.90;;;;;;5052758;28;20052;-69
2021/09/01 04:24:30;;;;;;;24.63;13.32;;;12.30;99.90;;;;;;5053228;28;20029;-69
2021/09/01 04:26:55;;;;;;;26.58;12.93;;;12.30;99.90;;;;;;5052244;28;20075;-69
2021/09/01 04:29:21;;;;;;;38.33;18.60;;;12.10;99.90;;;;;;5035518;28;20029;-69
2021/09/01 04:31:47;;;;;;;25.90;13.30;;;12.10;99.90;;;;;;5052048;28;20063;-69
2021/09/01 04:34:13;;;;;;;29.90;13.95;;;12.20;99.90;;;;;;5051917;28;20078;-69
2021/09/01 04:36:38;;;;;;;24.30;13.98;;;12.30;99.90;;;;;;5053179;28;20104;-69
2021/09/01 04:39:04;;;;;;;22.75;12.93;;;12.30;99.90;;;;;;5043201;28;20037;-69
2021/09/01 04:41:30;;;;;;;28.75;14.57;;;12.30;99.90;;;;;;5031745;28;20040;-70
2021/09/01 04:43:56;;;;;;;22.90;12.05;;;12.40;99.90;;;;;;5032989;28;20120;-69
2021/09/01 04:46:21;;;;;;;23.40;13.18;;;12.40;99.90;;;;;;5032721;28;20474;-73
2021/09/01 04:48:47;;;;;;;27.80;13.15;;;12.50;99.90;;;;;;5032489;28;20049;-74
2021/09/01 04:51:13;;;;;;;24.27;12.73;;;12.50;99.90;;;;;;5029201;28;20544;-73
2021/09/01 04:53:39;;;;;;;24.25;12.85;;;12.50;99.90;;;;;;5031299;28;20034;-73
2021/09/01 04:56:05;;;;;;;23.05;12.52;;;12.60;99.90;;;;;;5032983;28;20041;-73
2021/09/01 04:58:30;;;;;;;23.77;13.07;;;12.50;99.90;;;;;;5032067;28;20085;-73
2021/09/01 05:00:56;;;;;;;25.10;13.13;;;12.60;99.90;;;;;;5050124;28;20401;-73
2021/09/01 05:03:22;;;;;;;24.75;12.63;;;12.70;99.90;;;;;;5053084;28;20033;-73
2021/09/01 05:05:47;;;;;;;21.73;12.50;;;12.70;99.90;;;;;;5051293;28;20044;-72
2021/09/01 05:08:13;;;;;;;24.35;12.63;;;12.70;99.90;;;;;;5052590;28;20082;-73
2021/09/01 05:10:39;;;;;;;26.52;13.55;;;12.70;99.90;;;;;;5051309;28;20033;-73
2021/09/01 05:13:05;;;;;;;24.00;12.93;;;12.80;99.90;;;;;;5051332;28;20037;-73
2021/09/01 05:15:30;;;;;;;22.27;12.43;;;12.80;99.90;;;;;;5048933;28;20038;-73
2021/09/01 05:17:56;;;;;;;21.48;11.48;;;12.80;99.90;;;;;;5032332;28;20048;-73
2021/09/01 05:20:22;;;;;;;23.33;11.93;;;12.80;99.90;;;;;;5032777;28;20559;-73
2021/09/01 05:22:48;;;;;;;26.13;12.38;;;12.90;99.90;;;;;;5048396;28;20035;-74
2021/09/01 05:25:18;;;;;;;20.85;11.70;;;13.00;99.90;;;;;;5039353;28;20033;-74
2021/09/01 05:27:49;;;;;;;21.45;11.63;;;13.00;99.90;;;;;;5028105;28;20061;-72
2021/09/01 05:30:17;;;;;;;25.85;12.35;;;13.10;99.90;;;;;;5028533;28;20040;-72
2021/09/01 05:32:47;;;;;;;21.75;11.48;;;13.20;99.90;;;;;;5031696;28;20693;-73
2021/09/01 05:35:13;;;;;;;20.55;11.85;;;13.10;99.90;;;;;;5031333;28;20036;-72
2021/09/01 05:37:41;;;;;;;24.20;11.32;;;13.10;99.90;;;;;;5030835;28;20041;-72
2021/09/01 05:40:09;;;;;;;22.70;11.40;;;13.20;99.90;;;;;;5032052;28;20061;-72
2021/09/01 05:42:35;;;;;;;19.75;10.82;;;13.30;99.90;;;;;;5034853;28;20025;-74
2021/09/01 05:45:04;;;;;;;23.45;11.43;;;13.30;99.90;;;;;;5032182;28;20029;-74
2021/09/01 05:47:30;;;;;;;21.75;12.18;;;13.30;99.90;;;;;;5030744;28;20043;-75
2021/09/01 05:49:57;;;;;;;19.00;11.52;;;13.30;99.90;;;;;;5032316;28;20041;-74
2021/09/01 05:52:25;;;;;;;18.30;10.98;;;13.40;99.90;;;;;;5044859;28;20037;-74
2021/09/01 05:54:52;;;;;;;19.83;11.50;;;13.40;99.90;;;;;;5051853;28;20033;-74
2021/09/01 05:57:34;;;;;;;20.20;11.23;;;13.60;99.90;;;;;;5050797;28;20033;-76
2021/09/01 06:00:14;;;;;;;19.48;11.02;;;13.60;99.90;;;;;;5051111;28;20033;-73
2021/09/01 06:02:59;;;;;;;18.73;10.95;;;13.70;99.90;;;;;;5050621;28;20032;-74
2021/09/01 06:05:28;;;;;;;16.50;10.38;;;13.80;99.90;;;;;;5052022;28;20065;-74
2021/09/01 06:07:59;;;;;;;18.35;10.52;;;13.80;99.90;;;;;;5050744;28;20033;-73
2021/09/01 06:10:35;;;;;;;21.38;11.02;;;13.80;99.90;;;;;;5050646;28;20029;-73
2021/09/01 06:13:12;;;;;;;18.45;10.25;;;13.90;99.90;;;;;;5051955;28;20037;-73
2021/09/01 06:15:41;;;;;;;20.90;11.50;;;13.90;99.90;;;;;;5051529;28;20029;-74
2021/09/01 06:18:08;;;;;;;21.08;10.07;;;14.00;99.90;;;;;;5050073;28;20128;-74
2021/09/01 06:20:36;;;;;;;21.25;11.18;;;14.10;99.90;;;;;;5051694;28;20033;-73
2021/09/01 06:23:02;;;;;;;20.17;9.88;;;14.10;99.90;;;;;;5032507;28;20040;-73
2021/09/01 06:25:29;;;;;;;24.23;10.63;;;14.20;99.90;;;;;;5030821;28;20033;-73
2021/09/01 06:27:55;;;;;;;17.85;10.00;;;14.30;99.90;;;;;;5032588;28;20083;-73
2021/09/01 06:30:22;;;;;;;14.50;8.82;;;14.40;99.90;;;;;;5035440;28;20041;-73
2021/09/01 06:32:48;;;;;;;16.98;9.75;;;14.50;99.90;;;;;;5033963;28;20087;-73
2021/09/01 06:35:15;;;;;;;16.13;8.68;;;14.40;99.90;;;;;;5034157;28;20379;-73
2021/09/01 06:37:44;;;;;;;13.73;8.55;;;14.50;99.90;;;;;;5034308;28;20048;-72
2021/09/01 06:40:13;;;;;;;14.52;9.15;;;14.50;99.90;;;;;;5035517;28;20061;-73
2021/09/01 06:42:39;;;;;;;16.58;8.27;;;14.70;99.90;;;;;;5034064;28;20561;-73
2021/09/01 06:45:06;;;;;;;16.40;10.07;;;14.70;99.90;;;;;;5035395;28;20396;-73
2021/09/01 06:47:41;;;;;;;13.20;9.10;;;14.90;99.90;;;;;;5034101;28;20032;-73
2021/09/01 06:50:09;;;;;;;14.20;7.75;;;14.90;99.90;;;;;;5017641;28;20041;-72
2021/09/01 06:52:34;;;;;;;17.38;9.05;;;15.00;99.90;;;;;;5050929;28;20037;-73
2021/09/01 06:55:00;;;;;;;14.38;8.25;;;15.10;99.90;;;;;;5054239;28;20087;-73
2021/09/01 06:57:26;;;;;;;15.27;8.02;;;15.20;99.90;;;;;;5055371;28;20119;-73
2021/09/01 06:59:52;;;;;;;17.73;8.43;;;15.30;99.90;;;;;;5055041;28;20033;-74
2021/09/01 07:02:17;;;;;;;14.95;8.13;;;15.40;99.90;;;;;;5054117;28;20028;-73
2021/09/01 07:04:43;;;;;;;15.18;8.13;;;15.40;99.90;;;;;;5055160;28;20090;-74
2021/09/01 07:07:09;;;;;;;13.27;7.93;;;15.60;99.90;;;;;;5055165;28;20033;-74
2021/09/01 07:09:35;;;;;;;14.60;7.60;;;15.80;99.90;;;;;;5053416;28;20402;-74
2021/09/01 07:12:00;;;;;;;13.65;7.30;;;16.00;99.90;;;;;;5044399;28;20034;-73
2021/09/01 07:14:26;;;;;;;9.93;6.60;;;16.00;99.90;;;;;;5034857;28;20037;-74
2021/09/01 07:16:52;;;;;;;13.07;7.55;;;16.30;99.90;;;;;;5034712;28;20446;-74
2021/09/01 07:19:17;;;;;;;11.82;6.82;;;16.50;99.90;;;;;;5024435;28;20530;-74
2021/09/01 07:21:43;;;;;;;18.27;7.45;;;16.60;99.90;;;;;;5025911;28;20065;-74
2021/09/01 07:24:09;;;;;;;13.52;6.55;;;16.70;99.90;;;;;;5033520;28;20040;-74
2021/09/01 07:26:35;;;;;;;10.98;6.50;;;16.70;99.90;;;;;;5034369;28;20446;-75
2021/09/01 07:29:01;;;;;;;16.02;6.93;;;16.60;99.90;;;;;;5017942;28;20040;-70
2021/09/01 07:31:30;;;;;;;13.88;6.70;;;16.70;99.90;;;;;;5013930;28;20026;-74
2021/09/01 07:33:59;;;;;;;13.57;7.10;;;16.60;99.90;;;;;;5014296;28;20036;-74
2021/09/01 07:36:25;;;;;;;11.10;6.32;;;16.70;99.90;;;;;;5014652;28;20410;-74
2021/09/01 07:38:51;;;;;;;10.43;6.07;;;16.90;99.90;;;;;;5012157;28;20127;-74
2021/09/01 07:41:17;;;;;;;15.70;6.38;;;17.10;99.90;;;;;;5013964;28;20386;-74
2021/09/01 07:43:42;;;;;;;12.65;6.50;;;17.20;99.90;;;;;;5013380;28;20112;-74
2021/09/01 07:46:09;;;;;;;10.63;6.13;;;17.10;99.90;;;;;;5046082;28;20430;-75
2021/09/01 07:48:35;;;;;;;14.32;6.45;;;17.20;99.90;;;;;;5034108;28;20485;-76
2021/09/01 07:51:02;;;;;;;10.32;6.13;;;17.10;99.90;;;;;;5032880;28;20118;-76
2021/09/01 07:53:29;;;;;;;13.98;6.75;;;17.00;99.90;;;;;;5034031;28;20026;-75
2021/09/01 07:55:55;;;;;;;9.25;6.38;;;17.10;99.90;;;;;;5033981;28;20099;-74
2021/09/01 07:58:20;;;;;;;9.85;6.10;;;17.00;99.90;;;;;;5033018;28;20037;-75
2021/09/01 08:00:46;;;;;;;14.57;7.22;;;17.00;99.90;;;;;;5032763;28;20044;-76
2021/09/01 08:03:12;;;;;;;11.35;6.15;;;17.10;99.90;;;;;;5033973;28;20466;-75
2021/09/01 08:05:38;;;;;;;10.55;5.75;;;17.10;99.90;;;;;;5032500;28;20045;-77
2021/09/01 08:08:04;;;;;;;11.43;6.10;;;17.00;99.90;;;;;;5033494;28;20509;-76
2021/09/01 08:10:31;;;;;;;10.63;6.15;;;17.20;99.90;;;;;;5033792;28;20508;-75
2021/09/01 08:12:56;;;;;;;10.73;6.07;;;17.10;99.90;;;;;;5033625;28;20075;-76
2021/09/01 08:15:23;;;;;;;12.10;6.25;;;17.00;99.90;;;;;;5016228;28;20033;-76
2021/09/01 08:17:49;;;;;;;11.43;6.13;;;17.10;99.90;;;;;;5033616;28;20049;-76
2021/09/01 08:20:16;;;;;;;10.25;6.18;;;17.20;99.90;;;;;;5032195;28;20044;-76
2021/09/01 08:22:43;;;;;;;10.00;5.55;;;17.50;99.90;;;;;;5015798;28;20087;-76
2021/09/01 08:25:10;;;;;;;10.32;5.95;;;17.40;99.90;;;;;;5030769;28;20059;-74
2021/09/01 08:27:36;;;;;;;11.38;5.50;;;17.60;99.90;;;;;;5038339;28;20029;-75
2021/09/01 08:30:05;;;;;;;9.57;5.90;;;17.70;99.90;;;;;;5012012;28;20605;-76
2021/09/01 08:32:31;;;;;;;9.65;5.60;;;17.80;99.90;;;;;;5013848;28;20026;-74
2021/09/01 08:34:56;;;;;;;11.50;5.93;;;17.80;99.90;;;;;;5012028;28;20041;-76
2021/09/01 08:37:22;;;;;;;8.93;5.65;;;17.80;99.90;;;;;;5013363;28;20034;-75
2021/09/01 08:39:48;;;;;;;9.13;4.38;;;17.90;99.90;;;;;;5013183;28;20096;-78
2021/09/01 08:42:17;;;;;;;11.02;5.15;;;18.10;99.90;;;;;;5012190;28;20040;-75
2021/09/01 08:44:43;;;;;;;14.50;5.88;;;18.30;99.90;;;;;;5012106;28;20037;-76
2021/09/01 08:47:11;;;;;;;7.95;5.18;;;18.40;99.90;;;;;;5018862;28;20378;-77
2021/09/01 08:49:37;;;;;;;10.25;5.15;;;18.30;99.90;;;;;;5032878;28;20044;-77
2021/09/01 08:52:03;;;;;;;7.93;5.20;;;18.40;99.90;;;;;;5031528;28;20029;-78
2021/09/01 08:54:29;;;;;;;10.55;5.35;;;18.30;99.90;;;;;;5032887;28;20029;-77
2021/09/01 08:56:55;;;;;;;11.10;5.65;;;18.50;99.90;;;;;;5048356;28;20021;-76
2021/09/01 08:59:21;;;;;;;8.00;4.88;;;18.70;99.90;;;;;;5031473;28;20441;-75
2021/09/01 09:01:47;;;;;;;7.97;5.43;;;18.90;99.90;;;;;;5032929;28;20029;-76
2021/09/01 09:04:24;;;;;;;10.93;5.03;;;19.10;99.90;;;;;;5033071;28;20041;-75
2021/09/01 09:06:59;;;;;;;8.95;4.88;;;19.10;99.90;;;;;;5032659;28;20044;-75
2021/09/01 09:09:30;;;;;;;12.07;6.15;;;19.40;99.90;;;;;;5032658;28;20040;-76
2021/09/01 09:11:58;;;;;;;8.98;5.03;;;19.40;99.90;;;;;;5047527;28;20026;-76
2021/09/01 09:14:39;;;;;;;10.05;6.45;;;19.60;99.90;;;;;;5032569;28;20061;-75
2021/09/01 09:17:17;;;;;;;11.52;4.90;;;19.80;99.90;;;;;;5047371;28;20033;-76
2021/09/01 09:19:56;;;;;;;7.57;4.38;;;19.90;99.90;;;;;;5047721;28;20033;-76
2021/09/01 09:22:29;;;;;;;6.70;4.70;;;20.00;99.90;;;;;;5047426;28;20417;-75
2021/09/01 09:25:21;;;;;;;9.68;5.15;;;20.20;99.90;;;;;;5031290;28;20033;-76
2021/09/01 09:27:57;;;;;;;8.38;5.03;;;20.40;99.90;;;;;;5032338;28;20428;-76
2021/09/01 09:30:25;;;;;;;11.40;4.32;;;20.30;99.90;;;;;;5032480;28;20030;-77
2021/09/01 09:33:07;;;;;;;7.60;4.00;;;20.40;99.90;;;;;;5047655;28;20072;-73
2021/09/01 09:36:00;;;;;;;10.82;5.35;;;20.30;99.90;;;;;;5032653;28;20041;-76
2021/09/01 09:38:45;;;;;;;7.78;4.47;;;20.50;99.90;;;;;;5032399;28;20037;-78
2021/09/01 09:41:22;;;;;;;7.05;4.40;;;20.80;99.90;;;;;;5032218;28;20393;-76
2021/09/01 09:44:01;;;;;;;7.90;4.05;;;20.90;99.90;;;;;;5031923;28;20049;-78
2021/09/01 09:46:28;;;;;;;6.82;4.45;;;21.10;99.90;;;;;;5032479;28;20029;-77
2021/09/01 09:49:06;;;;;;;7.18;4.18;;;21.30;99.90;;;;;;5032365;28;20046;-76
2021/09/01 09:51:43;;;;;;;8.10;4.45;;;21.50;99.90;;;;;;5047616;28;20029;-78
2021/09/01 09:54:27;;;;;;;9.95;4.25;;;21.60;99.90;;;;;;5054654;28;20040;-77
2021/09/01 09:57:10;;;;;;;7.00;4.13;;;21.70;99.90;;;;;;5047146;28;20429;-76
2021/09/01 09:59:37;;;;;;;8.95;4.47;;;21.80;99.90;;;;;;5032080;28;20496;-75
2021/09/01 10:02:03;;;;;;;11.57;4.35;;;21.70;99.90;;;;;;5043982;28;20025;-76
2021/09/01 10:04:29;;;;;;;8.35;4.53;;;22.00;99.90;;;;;;5050789;28;20362;-76
2021/09/01 10:06:55;;;;;;;7.55;4.72;;;22.10;99.90;;;;;;5051377;28;20037;-75
2021/09/01 10:09:21;;;;;;;10.23;4.57;;;22.10;99.90;;;;;;5051469;28;20026;-75
2021/09/01 10:11:51;;;;;;;5.80;3.50;;;21.90;99.90;;;;;;5051276;28;20385;-75
2021/09/01 10:14:24;;;;;;;11.52;4.72;;;22.00;99.90;;;;;;5050939;28;20033;-75
2021/09/01 10:17:06;;;;;;;9.73;5.47;;;21.80;99.90;;;;;;5050945;28;20394;-76
2021/09/01 10:19:35;;;;;;;8.07;4.50;;;21.60;99.90;;;;;;5028305;28;20199;-77
2021/09/01 10:22:04;;;;;;;8.48;4.65;;;22.10;99.90;;;;;;5050793;28;20108;-76
2021/09/01 10:24:41;;;;;;;7.90;4.47;;;22.30;99.90;;;;;;5041575;28;20108;-75
2021/09/01 10:27:22;;;;;;;8.30;4.78;;;22.00;99.90;;;;;;5047830;28;20036;-77
2021/09/01 10:30:20;;;;;;;8.02;4.38;;;22.20;99.90;;;;;;5035528;28;20025;-77
2021/09/01 10:32:48;;;;;;;9.63;4.63;;;22.40;99.90;;;;;;5045261;28;20079;-77
2021/09/01 10:35:16;;;;;;;6.90;4.22;;;22.50;99.90;;;;;;5044163;28;20557;-75
2021/09/01 10:37:51;;;;;;;8.23;4.05;;;22.50;99.90;;;;;;5015585;28;20486;-76
2021/09/01 10:40:23;;;;;;;7.38;4.15;;;22.70;99.90;;;;;;5015869;28;20117;-75
2021/09/01 10:42:53;;;;;;;7.35;4.15;;;23.00;99.90;;;;;;5014361;28;20406;-76
2021/09/01 10:45:31;;;;;;;8.27;4.13;;;22.70;99.90;;;;;;5015716;28;20034;-75
2021/09/01 10:48:00;;;;;;;9.55;4.85;;;23.10;99.90;;;;;;5015380;28;20029;-80
2021/09/01 10:50:39;;;;;;;8.63;4.80;;;23.30;99.90;;;;;;5015502;28;20206;-78
2021/09/01 10:53:28;;;;;;;8.30;4.00;;;23.10;99.90;;;;;;5014037;28;20045;-75
2021/09/01 10:56:05;;;;;;;11.48;4.60;;;23.10;99.90;;;;;;5014397;28;20036;-76
2021/09/01 10:58:37;;;;;;;10.75;4.68;;;22.90;99.90;;;;;;5016750;28;20030;-74
2021/09/01 11:01:08;;;;;;;9.80;5.25;;;22.90;99.90;;;;;;5017904;28;20038;-76
2021/09/01 11:03:40;;;;;;;8.48;4.55;;;22.90;99.90;;;;;;5014090;28;20036;-75
2021/09/01 11:06:17;;;;;;;8.02;4.43;;;22.90;99.90;;;;;;5013940;28;20029;-74
2021/09/01 11:09:13;;;;;;;8.63;4.15;;;23.00;99.90;;;;;;5015727;28;20096;-79
2021/09/01 11:11:55;;;;;;;10.93;4.45;;;23.00;99.90;;;;;;5013891;28;20037;-78
2021/09/01 11:14:43;;;;;;;8.45;4.18;;;23.30;99.90;;;;;;5015119;28;20116;-74
2021/09/01 11:17:15;;;;;;;8.38;4.13;;;23.70;99.90;;;;;;5013739;28;20029;-75
2021/09/01 11:19:44;;;;;;;10.55;4.18;;;23.80;99.90;;;;;;5018823;28;20029;-78
2021/09/01 11:22:14;;;;;;;8.48;4.28;;;24.00;99.90;;;;;;5030569;28;20037;-72
2021/09/01 11:25:13;;;;;;;9.40;4.00;;;24.50;99.90;;;;;;5015433;28;20037;-74
2021/09/01 11:27:47;;;;;;;10.43;3.95;;;24.70;99.00;;;;;;5014960;28;20030;-75
2021/09/01 11:30:15;;;;;;;8.00;3.97;;;24.10;99.40;;;;;;5013503;28;20149;-75
2021/09/01 11:32:43;;;;;;;7.88;4.63;;;24.00;99.40;;;;;;5015001;28;20026;-74
2021/09/01 11:35:20;;;;;;;7.43;4.05;;;23.80;99.90;;;;;;5014737;28;20033;-66
2021/09/01 11:38:08;;;;;;;7.03;3.67;;;23.80;99.90;;;;;;5014577;28;20390;-67
2021/09/01 11:40:39;;;;;;;10.30;4.80;;;24.10;99.50;;;;;;5014815;28;20045;-67
2021/09/01 11:43:20;;;;;;;8.95;4.20;;;24.30;99.40;;;;;;5014773;28;20382;-67
2021/09/01 11:45:52;;;;;;;7.05;4.13;;;24.50;98.60;;;;;;5014498;28;20401;-66
2021/09/01 11:48:18;;;;;;;7.22;4.43;;;24.70;98.20;;;;;;5013206;28;20426;-65
2021/09/01 11:50:49;;;;;;;11.20;4.05;;;24.50;98.20;;;;;;5014644;28;20134;-65
2021/09/01 11:53:19;;;;;;;18.17;4.15;;;24.40;98.60;;;;;;5050329;28;20059;-66
2021/09/01 11:55:45;;;;;;;13.88;5.72;;;24.30;98.70;;;;;;5041763;28;20073;-67
2021/09/01 11:58:18;;;;;;;14.05;4.30;;;24.10;98.70;;;;;;5050149;28;20138;-66
2021/09/01 12:00:51;;;;;;;10.40;4.40;;;24.30;98.90;;;;;;5052760;28;20080;-66
2021/09/01 12:03:17;;;;;;;8.30;3.53;;;24.60;98.40;;;;;;5054158;28;20044;-66
2021/09/01 12:05:43;;;;;;;7.15;3.85;;;24.90;97.80;;;;;;5052986;28;20049;-66
2021/09/01 12:08:20;;;;;;;7.30;3.97;;;24.60;98.30;;;;;;5052622;28;20071;-66
2021/09/01 12:10:50;;;;;;;8.23;3.65;;;25.00;97.60;;;;;;5052854;28;20033;-66
2021/09/01 12:13:16;;;;;;;6.90;3.90;;;24.60;98.00;;;;;;5052643;28;20029;-66
2021/09/01 12:16:00;;;;;;;10.30;4.13;;;25.00;98.00;;;;;;5052414;28;20036;-66
2021/09/01 12:18:26;;;;;;;9.60;3.45;;;25.20;96.80;;;;;;5021754;28;20474;-65
2021/09/01 12:20:57;;;;;;;12.15;4.10;;;25.50;96.80;;;;;;5014060;28;20113;-65
2021/09/01 12:23:23;;;;;;;9.45;4.07;;;25.90;96.00;;;;;;5013959;28;20030;-66
2021/09/01 12:25:49;;;;;;;6.90;3.50;;;25.70;95.90;;;;;;5013137;28;20430;-66
2021/09/01 12:28:17;;;;;;;11.23;3.88;;;25.50;96.10;;;;;;5013706;28;20057;-65
2021/09/01 12:30:48;;;;;;;6.13;3.40;;;25.50;95.90;;;;;;5013680;28;20030;-65
2021/09/01 12:33:21;;;;;;;8.70;4.10;;;25.60;95.80;;;;;;5014395;28;20084;-66
2021/09/01 12:36:00;;;;;;;7.50;3.72;;;25.50;95.90;;;;;;5033252;28;20029;-65
2021/09/01 12:38:27;;;;;;;6.18;3.35;;;25.70;95.70;;;;;;5033341;28;20474;-65
2021/09/01 12:40:54;;;;;;;9.25;3.88;;;26.00;95.40;;;;;;5033136;28;20367;-66
2021/09/01 12:43:20;;;;;;;11.68;4.35;;;26.90;94.60;;;;;;5033142;28;20398;-66